createdAt,value
2019-03-31T00:02:07.112Z,34.37
2019-03-31T00:04:35.567Z,30.87
2019-03-31T00:07:04.054Z,29.33
2019-03-31T00:09:32.498Z,35.10
2019-03-31T00:12:00.970Z,30.50
2019-03-31T00:14:29.442Z,31.37
2019-03-31T00:16:57.962Z,30.83
2019-03-31T00:19:26.500Z,32.53
2019-03-31T00:21:54.934Z,30.73
2019-03-31T00:24:23.407Z,34.23
2019-03-31T00:26:51.853Z,32.10
2019-03-31T00:29:20.298Z,30.53
2019-03-31T00:31:48.773Z,31.83
2019-03-31T00:34:17.282Z,33.83
2019-03-31T00:36:45.738Z,29.30
2019-03-31T00:39:14.222Z,35.33
2019-03-31T00:41:42.684Z,37.70
2019-03-31T00:44:11.156Z,30.67
2019-03-31T00:46:39.596Z,34.30
2019-03-31T00:49:08.039Z,38.30
2019-03-31T00:51:36.496Z,29.43
2019-03-31T00:54:05.103Z,32.10
2019-03-31T00:56:33.559Z,33.70
2019-03-31T00:59:02.043Z,32.97
2019-03-31T01:01:36.703Z,33.47
2019-03-31T01:04:05.417Z,34.87
2019-03-31T01:06:34.277Z,31.07
2019-03-31T01:09:04.966Z,28.47
2019-03-31T01:11:33.461Z,29.00
2019-03-31T01:14:01.934Z,28.10
2019-03-31T01:16:31.642Z,27.63
2019-03-31T01:19:00.259Z,25.60
2019-03-31T01:21:28.717Z,27.30
2019-03-31T01:23:57.157Z,31.00
2019-03-31T01:26:25.589Z,26.63
2019-03-31T01:28:54.054Z,27.73
2019-03-31T01:31:22.763Z,29.57
2019-03-31T01:33:51.240Z,30.90
2019-03-31T01:36:19.699Z,28.10
2019-03-31T01:38:48.168Z,31.27
2019-03-31T01:41:16.869Z,30.27
2019-03-31T01:43:45.308Z,27.60
2019-03-31T01:46:15.193Z,27.30
2019-03-31T01:48:43.640Z,29.37
2019-03-31T01:51:12.118Z,25.67
2019-03-31T01:53:40.590Z,29.00
2019-03-31T01:56:09.075Z,33.33
2019-03-31T01:58:37.514Z,28.43
2019-03-31T02:01:08.161Z,28.33
2019-03-31T02:03:36.616Z,25.80
2019-03-31T02:06:05.083Z,32.23
2019-03-31T02:08:33.533Z,30.90
2019-03-31T02:11:01.971Z,34.30
2019-03-31T02:13:30.442Z,34.60
2019-03-31T02:15:59.159Z,30.27
2019-03-31T02:18:27.627Z,31.80
2019-03-31T02:20:56.099Z,39.03
2019-03-31T02:23:24.602Z,32.23
2019-03-31T02:25:53.063Z,29.93
2019-03-31T02:28:21.555Z,34.57
2019-03-31T02:30:50.743Z,34.50
2019-03-31T02:33:19.197Z,30.33
2019-03-31T02:35:47.629Z,30.67
2019-03-31T02:38:16.097Z,34.30
2019-03-31T02:40:44.555Z,32.83
2019-03-31T02:43:12.989Z,32.23
2019-03-31T02:45:41.452Z,30.17
2019-03-31T02:48:09.932Z,30.77
2019-03-31T02:50:50.111Z,36.73
2019-03-31T02:53:19.525Z,39.10
2019-03-31T02:55:48.915Z,33.90
2019-03-31T02:58:19.373Z,33.77
2019-03-31T03:00:48.105Z,34.97
2019-03-31T03:03:17.455Z,36.13
2019-03-31T03:05:46.662Z,35.93
2019-03-31T03:08:17.001Z,36.50
2019-03-31T03:10:45.627Z,38.40
2019-03-31T03:13:15.038Z,37.43
2019-03-31T03:16:07.419Z,45.33
2019-03-31T03:18:35.854Z,40.03
2019-03-31T03:21:04.313Z,41.27
2019-03-31T03:23:32.809Z,46.30
2019-03-31T03:26:01.274Z,41.27
2019-03-31T03:28:29.717Z,36.07
2019-03-31T03:30:58.388Z,38.63
2019-03-31T03:33:26.934Z,37.10
2019-03-31T03:35:55.365Z,37.33
2019-03-31T03:38:23.869Z,38.93
2019-03-31T03:40:52.353Z,41.13
2019-03-31T03:43:20.817Z,43.30
2019-03-31T03:45:49.274Z,38.63
2019-03-31T03:48:17.743Z,38.83
2019-03-31T03:50:46.311Z,45.10
2019-03-31T03:53:14.830Z,39.90
2019-03-31T03:55:43.271Z,43.87
2019-03-31T03:58:11.757Z,43.77
2019-03-31T04:00:40.225Z,42.00
2019-03-31T04:03:08.656Z,43.43
2019-03-31T04:05:37.130Z,41.13
2019-03-31T04:08:05.632Z,43.87
2019-03-31T04:10:46.015Z,45.87
2019-03-31T04:13:14.795Z,46.67
2019-03-31T04:15:43.519Z,47.50
2019-03-31T04:18:11.978Z,44.30
2019-03-31T04:20:40.427Z,50.00
2019-03-31T04:23:08.853Z,48.83
2019-03-31T04:25:37.304Z,49.43
2019-03-31T04:28:05.763Z,48.00
2019-03-31T04:30:34.187Z,46.17
2019-03-31T04:33:02.647Z,52.20
2019-03-31T04:35:31.098Z,53.57
2019-03-31T04:37:59.561Z,50.07
2019-03-31T04:40:28.028Z,54.17
2019-03-31T04:42:56.489Z,52.70
2019-03-31T04:45:24.963Z,52.23
2019-03-31T04:47:53.418Z,60.10
2019-03-31T04:50:21.866Z,54.87
2019-03-31T04:52:50.347Z,54.67
2019-03-31T04:55:18.795Z,59.00
2019-03-31T04:57:47.251Z,53.27
2019-03-31T05:00:15.687Z,57.27
2019-03-31T05:02:44.123Z,58.10
2019-03-31T05:05:12.581Z,50.50
2019-03-31T05:07:41.063Z,51.87
2019-03-31T05:10:09.786Z,56.43
2019-03-31T05:12:38.268Z,54.87
2019-03-31T05:15:07.042Z,56.10
2019-03-31T05:17:36.045Z,49.87
2019-03-31T05:20:05.773Z,54.60
2019-03-31T05:22:34.285Z,59.17
2019-03-31T05:25:02.807Z,57.83
2019-03-31T05:27:31.267Z,52.90
2019-03-31T05:29:59.704Z,57.83
2019-03-31T05:32:28.141Z,52.17
2019-03-31T05:34:56.618Z,52.07
2019-03-31T05:37:25.069Z,54.63
2019-03-31T05:39:53.507Z,55.80
2019-03-31T05:42:21.967Z,51.47
2019-03-31T05:44:50.400Z,54.03
2019-03-31T05:47:18.862Z,67.40
2019-03-31T05:49:47.369Z,52.50
2019-03-31T05:52:15.811Z,50.67
2019-03-31T05:54:44.245Z,59.17
2019-03-31T05:57:13.003Z,65.50
2019-03-31T05:59:41.450Z,60.40
2019-03-31T06:02:09.917Z,62.17
2019-03-31T06:04:38.389Z,57.10
2019-03-31T06:07:06.816Z,65.97
2019-03-31T06:09:35.331Z,56.77
2019-03-31T06:12:03.724Z,51.73
2019-03-31T06:14:32.178Z,50.47
2019-03-31T06:17:00.629Z,51.90
2019-03-31T06:19:29.084Z,47.10
2019-03-31T06:21:57.521Z,51.53
2019-03-31T06:24:25.951Z,47.90
2019-03-31T06:26:54.469Z,57.63
2019-03-31T06:29:22.909Z,54.87
2019-03-31T06:31:51.394Z,48.70
2019-03-31T06:34:19.939Z,45.83
2019-03-31T06:36:48.429Z,51.53
2019-03-31T06:39:16.891Z,51.50
2019-03-31T06:41:45.346Z,52.63
2019-03-31T06:44:13.807Z,50.97
2019-03-31T06:46:42.271Z,49.30
2019-03-31T06:49:10.725Z,54.53
2019-03-31T06:51:39.203Z,45.27
2019-03-31T06:54:07.681Z,52.90
2019-03-31T06:56:36.122Z,42.20
2019-03-31T06:59:04.582Z,44.97
2019-03-31T07:01:33.015Z,37.30
2019-03-31T07:04:01.483Z,34.03
2019-03-31T07:06:32.091Z,33.30
2019-03-31T07:09:00.565Z,37.00
2019-03-31T07:11:29.005Z,33.07
2019-03-31T07:13:57.491Z,25.23
2019-03-31T07:16:25.938Z,32.17
2019-03-31T07:18:54.384Z,30.50
2019-03-31T07:21:22.863Z,32.57
2019-03-31T07:23:51.365Z,28.17
2019-03-31T07:26:19.814Z,27.37
2019-03-31T07:28:48.088Z,22.10
2019-03-31T07:31:16.532Z,26.63
2019-03-31T07:33:45.005Z,27.60
2019-03-31T07:36:13.441Z,24.30
2019-03-31T07:38:41.978Z,22.83
2019-03-31T07:41:12.883Z,18.73
2019-03-31T07:43:40.731Z,21.67
2019-03-31T07:46:09.192Z,22.00
2019-03-31T07:48:37.651Z,16.97
2019-03-31T07:51:06.125Z,16.67
2019-03-31T07:53:34.566Z,20.57
2019-03-31T07:56:03.008Z,18.83
2019-03-31T07:58:31.478Z,21.67
2019-03-31T08:00:59.890Z,20.07
2019-03-31T08:03:28.479Z,21.17
2019-03-31T08:05:57.086Z,19.00
2019-03-31T08:08:25.548Z,22.00
2019-03-31T08:10:53.987Z,23.27
2019-03-31T08:13:22.470Z,22.03
2019-03-31T08:15:50.921Z,18.67
2019-03-31T08:18:19.405Z,24.13
2019-03-31T08:20:47.863Z,23.37
2019-03-31T08:23:16.332Z,22.67
2019-03-31T08:25:44.765Z,26.80
2019-03-31T08:28:13.291Z,23.27
2019-03-31T08:30:41.750Z,28.60
2019-03-31T08:33:10.212Z,21.50
2019-03-31T08:35:47.115Z,20.33
2019-03-31T08:38:08.868Z,17.30
2019-03-31T08:40:37.378Z,16.37
2019-03-31T08:43:05.880Z,17.17
2019-03-31T08:45:34.343Z,14.67
2019-03-31T08:48:02.862Z,13.07
2019-03-31T08:50:34.483Z,13.97
2019-03-31T08:53:01.480Z,15.50
2019-03-31T08:55:29.965Z,19.63
2019-03-31T08:57:58.410Z,19.13
2019-03-31T09:00:34.462Z,20.03
2019-03-31T09:03:10.886Z,16.63
2019-03-31T09:05:39.290Z,21.87
2019-03-31T09:08:07.815Z,16.50
2019-03-31T09:10:36.309Z,15.53
2019-03-31T09:13:05.119Z,20.20
2019-03-31T09:15:33.554Z,17.33
2019-03-31T09:18:01.998Z,18.90
2019-03-31T09:20:30.468Z,17.70
2019-03-31T09:22:58.925Z,17.67
2019-03-31T09:25:27.382Z,17.83
2019-03-31T09:27:56.138Z,18.90
2019-03-31T09:30:24.606Z,21.03
2019-03-31T09:32:53.088Z,19.63
2019-03-31T09:35:21.519Z,15.63
2019-03-31T09:37:49.977Z,16.60
2019-03-31T09:40:18.734Z,18.33
2019-03-31T09:42:47.193Z,15.47
2019-03-31T09:45:15.754Z,15.13
2019-03-31T09:47:44.233Z,16.97
2019-03-31T09:50:17.258Z,18.07
2019-03-31T09:52:45.435Z,26.07
2019-03-31T09:55:13.903Z,19.73
2019-03-31T09:57:42.342Z,19.07
2019-03-31T10:00:13.712Z,16.97
2019-03-31T10:02:42.401Z,18.17
2019-03-31T10:05:11.460Z,15.60
2019-03-31T10:07:40.207Z,14.00
2019-03-31T10:10:10.844Z,14.13
2019-03-31T10:12:39.303Z,13.97
2019-03-31T10:15:09.319Z,11.73
2019-03-31T10:17:37.856Z,12.13
2019-03-31T10:20:06.770Z,12.07
2019-03-31T10:22:35.291Z,13.83
2019-03-31T10:25:05.084Z,14.43
2019-03-31T10:27:33.571Z,14.77
2019-03-31T10:30:02.001Z,11.27
2019-03-31T10:32:30.457Z,15.37
2019-03-31T10:34:59.009Z,13.93
2019-03-31T10:37:27.451Z,14.83
2019-03-31T10:39:55.909Z,11.77
2019-03-31T10:42:24.388Z,14.73
2019-03-31T10:44:52.834Z,13.70
2019-03-31T10:47:21.359Z,12.00
2019-03-31T10:49:49.822Z,9.57
2019-03-31T10:52:18.304Z,11.20
2019-03-31T10:54:46.782Z,13.77
2019-03-31T10:57:15.222Z,8.07
2019-03-31T10:59:43.706Z,12.47
2019-03-31T11:02:12.190Z,9.43
2019-03-31T11:04:40.622Z,15.47
2019-03-31T11:07:09.093Z,15.83
2019-03-31T11:09:37.546Z,12.53
2019-03-31T11:12:06.041Z,9.90
2019-03-31T11:14:34.521Z,10.53
2019-03-31T11:17:02.986Z,12.90
2019-03-31T11:19:31.442Z,13.20
2019-03-31T11:22:07.551Z,7.97
2019-03-31T11:24:36.007Z,9.07
2019-03-31T11:27:04.461Z,11.67
2019-03-31T11:29:32.897Z,6.70
2019-03-31T11:32:01.371Z,10.23
2019-03-31T11:34:29.828Z,9.83
2019-03-31T11:37:12.493Z,10.70
2019-03-31T11:39:28.483Z,10.73
2019-03-31T11:41:56.962Z,10.07
2019-03-31T11:44:27.643Z,8.80
2019-03-31T11:46:55.588Z,11.13
2019-03-31T11:49:24.035Z,8.97
2019-03-31T11:51:52.492Z,8.57
2019-03-31T11:54:20.924Z,8.43
2019-03-31T11:56:49.385Z,8.27
2019-03-31T11:59:20.712Z,7.60
2019-03-31T12:01:48.081Z,9.67
2019-03-31T12:04:16.524Z,8.30
2019-03-31T12:06:46.043Z,11.10
2019-03-31T12:09:14.570Z,9.90
2019-03-31T12:11:45.650Z,14.23
2019-03-31T12:14:13.242Z,7.37
2019-03-31T12:16:41.698Z,11.73
2019-03-31T12:19:10.629Z,9.93
2019-03-31T12:21:39.133Z,10.23
2019-03-31T12:24:07.603Z,6.70
2019-03-31T12:26:36.070Z,7.50
2019-03-31T12:29:04.518Z,7.30
2019-03-31T12:31:33.529Z,6.37
2019-03-31T12:34:01.970Z,5.47
2019-03-31T12:36:30.451Z,5.50
2019-03-31T12:38:58.925Z,7.27
2019-03-31T12:41:27.372Z,7.13
2019-03-31T12:43:55.833Z,6.40
2019-03-31T12:46:24.316Z,4.23
2019-03-31T12:48:52.837Z,5.20
2019-03-31T12:51:21.299Z,4.67
2019-03-31T12:53:51.251Z,6.60
2019-03-31T12:56:19.930Z,5.73
2019-03-31T12:58:48.465Z,3.03
2019-03-31T13:01:16.861Z,8.43
2019-03-31T13:03:45.351Z,9.43
2019-03-31T13:06:13.803Z,5.23
2019-03-31T13:08:42.235Z,7.83
2019-03-31T13:11:10.692Z,4.93
2019-03-31T13:13:39.249Z,6.57
2019-03-31T13:16:07.706Z,6.23
2019-03-31T13:18:36.179Z,6.17
2019-03-31T13:21:04.691Z,3.87
2019-03-31T13:23:33.147Z,5.43
2019-03-31T13:26:01.592Z,4.63
2019-03-31T13:28:30.134Z,2.83
2019-03-31T13:30:58.605Z,4.37
2019-03-31T13:33:27.038Z,9.73
2019-03-31T13:35:55.512Z,7.30
2019-03-31T13:38:24.057Z,12.57
2019-03-31T13:40:52.626Z,4.60
2019-03-31T13:43:21.081Z,4.77
2019-03-31T13:45:49.526Z,4.03
2019-03-31T13:48:17.971Z,5.07
2019-03-31T13:50:46.409Z,5.80
2019-03-31T13:53:16.483Z,6.27
2019-03-31T13:55:45.054Z,4.40
2019-03-31T13:58:14.254Z,6.03
2019-03-31T14:00:43.908Z,5.17
2019-03-31T14:03:12.426Z,5.40
2019-03-31T14:05:40.865Z,6.27
2019-03-31T14:08:09.303Z,8.83
2019-03-31T14:10:37.781Z,4.40
2019-03-31T14:13:06.210Z,4.60
2019-03-31T14:15:34.663Z,7.20
2019-03-31T14:18:03.436Z,5.93
2019-03-31T14:20:31.936Z,4.47
2019-03-31T14:23:00.368Z,4.90
2019-03-31T14:25:28.804Z,4.03
2019-03-31T14:27:57.292Z,6.87
2019-03-31T14:30:25.814Z,5.97
2019-03-31T14:32:54.245Z,3.93
2019-03-31T14:35:22.705Z,6.00
2019-03-31T14:37:51.186Z,5.10
2019-03-31T14:40:19.619Z,6.60
2019-03-31T14:42:48.090Z,6.30
2019-03-31T14:45:31.312Z,5.43
2019-03-31T14:48:01.131Z,3.37
2019-03-31T14:50:34.049Z,5.97
2019-03-31T14:53:02.678Z,7.03
2019-03-31T14:55:31.134Z,4.90
2019-03-31T14:57:59.763Z,5.17
2019-03-31T15:00:28.241Z,4.20
2019-03-31T15:02:57.556Z,6.30
2019-03-31T15:05:25.998Z,4.50
2019-03-31T15:07:54.448Z,5.60
2019-03-31T15:10:22.918Z,4.37
2019-03-31T15:12:51.424Z,4.23
2019-03-31T15:15:19.853Z,5.03
2019-03-31T15:17:48.338Z,5.67
2019-03-31T15:20:16.778Z,3.80
2019-03-31T15:22:45.246Z,4.37
2019-03-31T15:25:13.741Z,3.73
2019-03-31T15:27:42.196Z,3.33
2019-03-31T15:30:10.933Z,6.30
2019-03-31T15:32:39.377Z,4.17
2019-03-31T15:35:07.970Z,6.93
2019-03-31T15:37:36.444Z,4.10
2019-03-31T15:40:10.509Z,2.20
2019-03-31T15:42:39.054Z,4.50
2019-03-31T15:45:07.845Z,4.80
2019-03-31T15:47:36.363Z,6.73
2019-03-31T15:50:07.462Z,3.47
2019-03-31T15:52:35.902Z,3.53
2019-03-31T15:55:06.512Z,4.37
2019-03-31T15:57:34.942Z,3.10
2019-03-31T16:00:04.047Z,4.37
2019-03-31T16:02:32.546Z,6.73
2019-03-31T16:05:00.967Z,3.83
2019-03-31T16:07:29.390Z,4.13
2019-03-31T16:09:57.869Z,5.67
2019-03-31T16:12:26.281Z,3.10
2019-03-31T16:14:54.749Z,4.07
2019-03-31T16:17:23.209Z,5.70
2019-03-31T16:19:51.676Z,5.03
2019-03-31T16:22:20.144Z,4.33
2019-03-31T16:24:52.673Z,3.50
2019-03-31T16:27:21.135Z,5.90
2019-03-31T16:29:49.588Z,5.53
2019-03-31T16:32:18.039Z,5.43
2019-03-31T16:34:46.499Z,2.90
2019-03-31T16:37:14.961Z,7.70
2019-03-31T16:39:43.394Z,5.53
2019-03-31T16:42:12.009Z,3.00
2019-03-31T16:44:40.461Z,2.90
2019-03-31T16:47:08.949Z,5.40
2019-03-31T16:49:37.387Z,5.43
2019-03-31T16:52:05.920Z,5.03
2019-03-31T16:54:34.339Z,5.80
2019-03-31T16:57:02.811Z,3.13
2019-03-31T16:59:31.303Z,6.33
2019-03-31T17:01:59.774Z,7.90
2019-03-31T17:04:28.210Z,10.60
2019-03-31T17:06:56.840Z,5.03
2019-03-31T17:09:25.339Z,5.30
2019-03-31T17:11:53.808Z,6.90
2019-03-31T17:14:22.287Z,6.37
2019-03-31T17:16:50.744Z,5.00
2019-03-31T17:19:19.248Z,7.37
2019-03-31T17:21:47.727Z,9.13
2019-03-31T17:24:16.331Z,8.47
2019-03-31T17:26:44.766Z,8.87
2019-03-31T17:29:13.221Z,9.73
2019-03-31T17:31:41.707Z,4.63
2019-03-31T17:34:10.132Z,4.33
2019-03-31T17:36:41.004Z,4.87
2019-03-31T17:39:08.812Z,8.60
2019-03-31T17:41:37.257Z,6.30
2019-03-31T17:44:05.884Z,4.77
2019-03-31T17:46:34.313Z,5.50
2019-03-31T17:49:02.740Z,6.67
2019-03-31T17:51:31.208Z,3.97
2019-03-31T17:53:59.629Z,4.80
2019-03-31T17:56:28.065Z,6.67
2019-03-31T17:58:56.526Z,3.87
2019-03-31T18:01:24.996Z,5.43
2019-03-31T18:03:53.465Z,6.97
2019-03-31T18:06:21.981Z,7.27
2019-03-31T18:08:50.430Z,8.37
2019-03-31T18:11:18.878Z,10.53
2019-03-31T18:13:47.337Z,3.93
2019-03-31T18:16:15.785Z,4.80
2019-03-31T18:18:44.314Z,8.70
2019-03-31T18:21:12.758Z,6.33
2019-03-31T18:23:41.217Z,11.00
2019-03-31T18:26:09.679Z,9.63
2019-03-31T18:28:38.128Z,9.23
2019-03-31T18:31:06.618Z,6.27
2019-03-31T18:33:35.047Z,6.47
2019-03-31T18:36:03.477Z,8.10
2019-03-31T18:38:31.924Z,4.27
2019-03-31T18:41:03.485Z,5.47
2019-03-31T18:43:30.570Z,4.70
2019-03-31T18:45:59.035Z,12.63
2019-03-31T18:48:27.467Z,6.87
2019-03-31T18:50:55.966Z,5.57
2019-03-31T18:53:41.050Z,8.93
2019-03-31T18:56:27.683Z,8.77
2019-03-31T18:59:13.948Z,4.30
2019-03-31T19:01:46.637Z,8.50
2019-03-31T19:04:29.021Z,8.50
2019-03-31T19:06:59.104Z,12.03
2019-03-31T19:09:35.156Z,4.93
2019-03-31T19:12:20.043Z,6.30
2019-03-31T19:15:01.951Z,8.60
2019-03-31T19:17:49.629Z,5.43
2019-03-31T19:20:28.785Z,5.23
2019-03-31T19:23:15.214Z,5.33
2019-03-31T19:25:45.315Z,10.00
2019-03-31T19:28:18.370Z,4.63
2019-03-31T19:31:06.538Z,5.70
2019-03-31T19:33:48.329Z,20.23
2019-03-31T19:36:19.723Z,4.60
2019-03-31T19:39:05.800Z,8.80
2019-03-31T19:41:52.926Z,5.20
2019-03-31T19:44:23.014Z,5.33
2019-03-31T19:46:58.533Z,9.00
2019-03-31T19:49:43.641Z,7.07
2019-03-31T19:52:29.840Z,3.83
2019-03-31T19:55:02.659Z,6.57
2019-03-31T19:57:41.836Z,5.13
2019-03-31T20:00:17.091Z,6.47
2019-03-31T20:02:47.416Z,5.20
2019-03-31T20:05:17.494Z,5.93
2019-03-31T20:07:49.232Z,3.00
2019-03-31T20:10:22.374Z,4.73
2019-03-31T20:12:52.501Z,7.47
2019-03-31T20:15:25.509Z,4.83
2019-03-31T20:17:55.589Z,2.87
2019-03-31T20:20:28.389Z,4.33
2019-03-31T20:23:00.960Z,7.63
2019-03-31T20:25:40.244Z,4.70
2019-03-31T20:28:13.044Z,9.70
2019-03-31T20:30:43.172Z,5.93
2019-03-31T20:33:19.329Z,15.60
2019-03-31T20:36:07.226Z,4.12
2019-03-31T20:38:49.871Z,8.00
2019-03-31T20:41:28.955Z,4.20
2019-03-31T20:43:57.489Z,7.25
2019-03-31T20:46:25.945Z,5.65
2019-03-31T20:48:54.410Z,5.87
2019-03-31T20:51:22.907Z,3.58
2019-03-31T20:53:51.349Z,4.22
2019-03-31T20:56:19.784Z,3.15
2019-03-31T20:58:48.263Z,3.90
2019-03-31T21:01:16.730Z,9.68
2019-03-31T21:03:45.172Z,4.90
2019-03-31T21:06:13.642Z,4.37
2019-03-31T21:08:42.106Z,3.07
2019-03-31T21:11:10.568Z,4.42
2019-03-31T21:13:39.000Z,5.25
2019-03-31T21:16:07.465Z,4.78
2019-03-31T21:18:35.901Z,2.83
2019-03-31T21:21:04.364Z,6.03
2019-03-31T21:23:33.732Z,7.90
2019-03-31T21:26:02.211Z,4.55
2019-03-31T21:28:30.693Z,6.50
2019-03-31T21:30:59.170Z,7.00
2019-03-31T21:33:27.608Z,4.80
2019-03-31T21:35:56.066Z,5.08
2019-03-31T21:38:24.525Z,7.17
2019-03-31T21:40:53.065Z,4.83
2019-03-31T21:43:21.526Z,4.55
2019-03-31T21:45:49.991Z,4.05
2019-03-31T21:48:18.461Z,6.92
2019-03-31T21:50:46.924Z,4.67
2019-03-31T21:53:15.395Z,6.65
2019-03-31T21:55:43.832Z,4.15
2019-03-31T21:58:12.489Z,6.50
2019-03-31T22:00:48.254Z,7.30
2019-03-31T22:03:16.710Z,5.85
2019-03-31T22:05:45.143Z,5.40
2019-03-31T22:08:13.681Z,8.15
2019-03-31T22:10:42.103Z,7.85
2019-03-31T22:13:10.541Z,8.78
2019-03-31T22:15:39.029Z,8.30
2019-03-31T22:18:07.448Z,7.78
2019-03-31T22:20:35.895Z,7.72
2019-03-31T22:23:04.357Z,8.50
2019-03-31T22:25:32.785Z,9.40
2019-03-31T22:28:01.234Z,4.25
2019-03-31T22:30:29.692Z,5.30
2019-03-31T22:32:58.136Z,5.55
2019-03-31T22:35:26.753Z,3.72
2019-03-31T22:37:55.222Z,3.42
2019-03-31T22:40:23.658Z,5.05
2019-03-31T22:42:52.094Z,4.35
2019-03-31T22:45:20.546Z,6.70
2019-03-31T22:47:48.996Z,5.37
2019-03-31T22:50:17.514Z,5.85
2019-03-31T22:52:45.975Z,12.93
2019-03-31T22:55:14.456Z,10.18
2019-03-31T22:57:42.905Z,5.75
2019-03-31T23:00:14.040Z,10.68
2019-03-31T23:02:42.482Z,8.43
2019-03-31T23:05:10.948Z,8.33
2019-03-31T23:07:39.365Z,7.03
2019-03-31T23:10:07.968Z,6.22
2019-03-31T23:12:36.440Z,6.28
2019-03-31T23:15:06.808Z,9.63
2019-03-31T23:17:35.265Z,7.33
2019-03-31T23:20:03.898Z,7.83
2019-03-31T23:22:32.348Z,6.25
2019-03-31T23:25:00.964Z,4.75
2019-03-31T23:27:29.495Z,6.47
2019-03-31T23:29:57.938Z,9.13
2019-03-31T23:32:26.360Z,4.05
2019-03-31T23:34:54.821Z,7.00
2019-03-31T23:37:23.252Z,6.28
2019-03-31T23:39:51.728Z,7.05
2019-03-31T23:42:20.162Z,6.75
2019-03-31T23:44:48.613Z,5.60
2019-03-31T23:47:17.058Z,7.35
2019-03-31T23:49:45.519Z,5.10
2019-03-31T23:52:13.954Z,6.37
2019-03-31T23:54:42.380Z,8.30
2019-03-31T23:57:10.833Z,16.15
2019-03-31T23:59:39.280Z,8.40
